createdAt,value
2023-08-27T00:00:25.433Z,13.06
2023-08-27T00:02:54.638Z,13.22
2023-08-27T00:05:24.024Z,13.53
2023-08-27T00:07:53.835Z,13.21
2023-08-27T00:10:23.307Z,13.45
2023-08-27T00:12:52.624Z,13.28
2023-08-27T00:15:21.599Z,12.95
2023-08-27T00:17:52.923Z,13.10
2023-08-27T00:20:22.239Z,12.90
2023-08-27T00:22:51.867Z,13.20
2023-08-27T00:25:20.970Z,12.94
2023-08-27T00:27:49.973Z,13.02
2023-08-27T00:30:19.459Z,13.28
2023-08-27T00:32:48.411Z,13.21
2023-08-27T00:35:17.919Z,13.16
2023-08-27T00:37:47.462Z,13.12
2023-08-27T00:40:16.469Z,13.16
2023-08-27T00:42:45.737Z,13.06
2023-08-27T00:45:14.749Z,13.55
2023-08-27T00:47:44.200Z,13.43
2023-08-27T00:50:13.687Z,13.48
2023-08-27T00:52:44.375Z,13.69
2023-08-27T00:55:13.422Z,13.68
2023-08-27T00:57:43.421Z,13.93
2023-08-27T01:00:13.491Z,14.31
2023-08-27T01:02:45.346Z,14.38
2023-08-27T01:05:15.191Z,14.29
2023-08-27T01:08:18.030Z,14.15
2023-08-27T01:11:09.495Z,13.69
2023-08-27T01:13:51.458Z,13.57
2023-08-27T01:16:24.065Z,13.52
2023-08-27T01:18:55.095Z,13.20
2023-08-27T01:21:25.498Z,13.44
2023-08-27T01:23:54.860Z,13.25
2023-08-27T01:26:49.259Z,13.48
2023-08-27T01:29:25.096Z,12.97
2023-08-27T01:32:07.077Z,13.45
2023-08-27T01:34:38.007Z,13.26
2023-08-27T01:37:07.563Z,13.31
2023-08-27T01:39:37.019Z,13.22
2023-08-27T01:42:06.548Z,12.91
2023-08-27T01:44:35.653Z,12.77
2023-08-27T01:47:05.616Z,12.72
2023-08-27T01:49:35.404Z,12.76
2023-08-27T01:52:08.850Z,12.68
2023-08-27T01:54:36.750Z,12.62
2023-08-27T01:57:06.147Z,12.66
2023-08-27T01:59:35.320Z,12.68
2023-08-27T02:02:04.937Z,12.93
2023-08-27T02:04:34.236Z,12.83
2023-08-27T02:07:03.208Z,12.66
2023-08-27T02:09:32.769Z,12.78
2023-08-27T02:12:01.817Z,12.65
2023-08-27T02:14:30.969Z,12.58
2023-08-27T02:17:00.157Z,12.63
2023-08-27T02:19:29.508Z,12.56
2023-08-27T02:21:58.499Z,12.62
2023-08-27T02:24:27.483Z,13.04
2023-08-27T02:26:56.768Z,12.86
2023-08-27T02:29:25.766Z,12.84
2023-08-27T02:31:54.992Z,12.79
2023-08-27T02:34:24.249Z,12.78
2023-08-27T02:36:53.793Z,13.19
2023-08-27T02:39:22.752Z,12.91
2023-08-27T02:41:51.934Z,12.75
2023-08-27T02:44:21.297Z,12.71
2023-08-27T02:46:50.432Z,12.73
2023-08-27T02:49:19.423Z,12.70
2023-08-27T02:51:48.449Z,12.88
2023-08-27T02:54:17.746Z,12.88
2023-08-27T02:56:46.765Z,13.05
2023-08-27T02:59:15.684Z,13.00
2023-08-27T03:01:44.854Z,13.60
2023-08-27T03:04:14.078Z,13.48
2023-08-27T03:06:43.082Z,13.27
2023-08-27T03:09:13.241Z,13.19
2023-08-27T03:11:42.265Z,13.28
2023-08-27T03:14:11.385Z,13.32
2023-08-27T03:16:41.594Z,13.54
2023-08-27T03:19:11.395Z,13.63
2023-08-27T03:21:41.461Z,13.96
2023-08-27T03:24:11.470Z,13.59
2023-08-27T03:26:40.601Z,13.68
2023-08-27T03:29:09.508Z,13.30
2023-08-27T03:31:38.803Z,13.87
2023-08-27T03:34:08.569Z,13.50
2023-08-27T03:36:38.053Z,13.17
2023-08-27T03:39:09.740Z,13.25
2023-08-27T03:41:38.961Z,13.87
2023-08-27T03:44:08.196Z,14.09
2023-08-27T03:46:39.702Z,14.02
2023-08-27T03:49:09.122Z,13.79
2023-08-27T03:51:39.442Z,13.52
2023-08-27T03:54:09.262Z,13.68
2023-08-27T03:56:38.563Z,13.32
2023-08-27T03:59:07.893Z,14.02
2023-08-27T04:01:37.171Z,14.68
2023-08-27T04:04:06.376Z,14.82
2023-08-27T04:06:35.612Z,16.24
2023-08-27T04:09:06.289Z,15.01
2023-08-27T04:11:36.190Z,15.68
2023-08-27T04:14:05.492Z,15.67
2023-08-27T04:16:34.472Z,15.71
2023-08-27T04:19:03.897Z,16.22
2023-08-27T04:21:32.870Z,16.88
2023-08-27T04:24:01.880Z,16.47
2023-08-27T04:26:30.866Z,16.69
2023-08-27T04:29:00.172Z,16.35
2023-08-27T04:31:30.622Z,16.55
2023-08-27T04:33:59.877Z,15.82
2023-08-27T04:36:28.799Z,16.34
2023-08-27T04:38:58.087Z,15.96
2023-08-27T04:41:27.352Z,16.40
2023-08-27T04:43:56.364Z,17.08
2023-08-27T04:46:25.369Z,16.89
2023-08-27T04:48:54.830Z,17.34
2023-08-27T04:51:27.894Z,16.81
2023-08-27T04:53:57.030Z,17.17
2023-08-27T04:56:26.120Z,17.44
2023-08-27T04:58:55.299Z,16.70
2023-08-27T05:01:24.229Z,17.01
2023-08-27T05:03:53.285Z,16.92
2023-08-27T05:06:22.188Z,17.12
2023-08-27T05:08:51.482Z,17.11
2023-08-27T05:11:20.401Z,17.50
2023-08-27T05:13:49.617Z,17.11
2023-08-27T05:16:18.844Z,17.32
2023-08-27T05:18:48.410Z,16.36
2023-08-27T05:21:17.342Z,15.41
2023-08-27T05:23:46.332Z,15.71
2023-08-27T05:26:15.452Z,15.14
2023-08-27T05:28:45.174Z,13.95
2023-08-27T05:31:14.464Z,13.68
2023-08-27T05:33:43.637Z,14.77
2023-08-27T05:36:12.970Z,14.73
2023-08-27T05:38:41.899Z,14.27
2023-08-27T05:41:11.228Z,15.56
2023-08-27T05:43:41.863Z,15.26
2023-08-27T05:46:11.445Z,13.98
2023-08-27T05:48:40.519Z,13.56
2023-08-27T05:51:09.767Z,14.44
2023-08-27T05:53:39.606Z,16.05
2023-08-27T05:56:08.840Z,14.56
2023-08-27T05:58:38.367Z,15.58
2023-08-27T06:01:07.783Z,14.01
2023-08-27T06:03:37.100Z,14.18
2023-08-27T06:06:06.080Z,14.40
2023-08-27T06:08:35.611Z,14.48
2023-08-27T06:11:05.590Z,14.07
2023-08-27T06:13:34.654Z,15.22
2023-08-27T06:16:04.798Z,14.75
2023-08-27T06:18:34.173Z,15.27
2023-08-27T06:21:04.422Z,16.68
2023-08-27T06:23:33.945Z,15.93
2023-08-27T06:26:04.980Z,15.88
2023-08-27T06:28:34.382Z,15.50
2023-08-27T06:31:03.667Z,16.18
2023-08-27T06:33:33.050Z,16.05
2023-08-27T06:36:02.151Z,15.65
2023-08-27T06:38:31.077Z,15.88
2023-08-27T06:41:00.529Z,16.35
2023-08-27T06:43:30.498Z,16.73
2023-08-27T06:45:59.547Z,17.34
2023-08-27T06:48:28.834Z,16.81
2023-08-27T06:50:58.438Z,16.57
2023-08-27T06:53:27.599Z,17.18
2023-08-27T06:55:56.987Z,16.40
2023-08-27T06:58:26.025Z,17.22
2023-08-27T07:00:55.012Z,17.61
2023-08-27T07:03:24.341Z,17.30
2023-08-27T07:05:53.317Z,16.69
2023-08-27T07:08:24.166Z,16.16
2023-08-27T07:10:53.347Z,16.41
2023-08-27T07:13:22.294Z,16.32
2023-08-27T07:15:51.409Z,17.58
2023-08-27T07:18:20.475Z,17.77
2023-08-27T07:20:49.500Z,18.32
2023-08-27T07:23:18.587Z,18.57
2023-08-27T07:25:47.670Z,18.69
2023-08-27T07:28:16.911Z,19.18
2023-08-27T07:30:49.928Z,17.90
2023-08-27T07:33:19.272Z,19.14
2023-08-27T07:35:49.102Z,19.64
2023-08-27T07:38:18.413Z,19.89
2023-08-27T07:40:48.180Z,19.99
2023-08-27T07:43:17.152Z,19.81
2023-08-27T07:45:46.239Z,19.32
2023-08-27T07:48:15.572Z,19.70
2023-08-27T07:50:45.211Z,20.10
2023-08-27T07:53:14.852Z,19.70
2023-08-27T07:55:43.935Z,19.58
2023-08-27T07:58:13.267Z,20.03
2023-08-27T08:00:42.281Z,20.70
2023-08-27T08:03:11.429Z,20.44
2023-08-27T08:05:40.875Z,19.38
2023-08-27T08:08:09.822Z,19.35
2023-08-27T08:10:39.749Z,20.49
2023-08-27T08:13:09.098Z,21.32
2023-08-27T08:15:38.342Z,21.70
2023-08-27T08:18:07.936Z,21.31
2023-08-27T08:20:40.393Z,21.13
2023-08-27T08:23:09.983Z,21.09
2023-08-27T08:25:39.178Z,20.55
2023-08-27T08:28:08.430Z,20.57
2023-08-27T08:30:37.611Z,20.58
2023-08-27T08:33:06.995Z,20.75
2023-08-27T08:35:36.396Z,21.02
2023-08-27T08:38:05.332Z,21.26
2023-08-27T08:40:43.095Z,21.14
2023-08-27T08:43:26.587Z,21.28
2023-08-27T08:46:02.854Z,21.65
2023-08-27T08:48:41.953Z,21.52
2023-08-27T08:51:13.605Z,22.06
2023-08-27T08:53:50.285Z,21.33
2023-08-27T08:56:28.381Z,21.44
2023-08-27T08:58:59.578Z,21.68
2023-08-27T09:01:30.159Z,21.56
2023-08-27T09:04:01.367Z,21.36
2023-08-27T09:06:30.800Z,21.18
2023-08-27T09:09:02.332Z,21.08
2023-08-27T09:11:33.376Z,21.04
2023-08-27T09:14:04.924Z,21.38
2023-08-27T09:16:34.256Z,22.28
2023-08-27T09:19:03.613Z,22.33
2023-08-27T09:21:32.672Z,22.50
2023-08-27T09:24:01.969Z,22.75
2023-08-27T09:26:31.343Z,22.93
2023-08-27T09:29:02.501Z,23.43
2023-08-27T09:31:43.693Z,23.63
2023-08-27T09:34:15.125Z,24.05
2023-08-27T09:36:44.284Z,24.12
2023-08-27T09:39:14.023Z,24.33
2023-08-27T09:41:50.052Z,24.38
2023-08-27T09:44:26.619Z,24.74
2023-08-27T09:47:05.033Z,24.78
2023-08-27T09:49:41.440Z,24.39
2023-08-27T09:52:10.732Z,23.94
2023-08-27T09:54:43.749Z,23.75
2023-08-27T09:57:18.425Z,23.71
2023-08-27T09:59:51.180Z,23.53
2023-08-27T10:02:20.753Z,23.89
2023-08-27T10:04:55.538Z,24.56
2023-08-27T10:07:24.982Z,24.49
2023-08-27T10:09:55.495Z,24.28
2023-08-27T10:12:24.726Z,24.68
2023-08-27T10:14:54.178Z,24.34
2023-08-27T10:17:24.419Z,23.90
2023-08-27T10:19:54.414Z,23.46
2023-08-27T10:22:24.570Z,23.28
2023-08-27T10:24:53.992Z,23.34
2023-08-27T10:27:23.700Z,23.39
2023-08-27T10:29:53.417Z,23.36
2023-08-27T10:32:22.667Z,23.06
2023-08-27T10:34:53.039Z,22.93
2023-08-27T10:37:22.812Z,22.74
2023-08-27T10:39:54.880Z,22.70
2023-08-27T10:42:34.564Z,22.54
2023-08-27T10:45:18.513Z,22.28
2023-08-27T10:48:08.118Z,22.19
2023-08-27T10:50:48.230Z,21.45
2023-08-27T10:53:18.797Z,20.58
2023-08-27T10:55:52.939Z,19.88
2023-08-27T10:58:23.977Z,19.85
2023-08-27T11:01:13.122Z,19.73
2023-08-27T11:03:59.034Z,19.19
2023-08-27T11:06:37.428Z,18.80
2023-08-27T11:09:23.644Z,18.91
2023-08-27T11:12:04.719Z,19.51
2023-08-27T11:14:40.891Z,19.69
2023-08-27T11:17:09.938Z,20.31
2023-08-27T11:19:39.654Z,19.96
2023-08-27T11:22:15.296Z,19.66
2023-08-27T11:24:46.298Z,19.99
2023-08-27T11:27:20.185Z,20.22
2023-08-27T11:29:54.191Z,20.13
2023-08-27T11:32:23.565Z,20.46
2023-08-27T11:34:54.244Z,20.58
2023-08-27T11:37:35.723Z,20.39
2023-08-27T11:40:14.463Z,20.30
2023-08-27T11:42:54.303Z,20.21
2023-08-27T11:45:36.026Z,19.74
2023-08-27T11:48:10.103Z,20.14
2023-08-27T11:50:43.812Z,19.85
2023-08-27T11:53:13.616Z,19.65
2023-08-27T11:55:43.206Z,19.40
2023-08-27T11:58:12.670Z,18.83
2023-08-27T12:00:46.278Z,19.46
2023-08-27T12:03:16.522Z,18.15
2023-08-27T12:05:46.120Z,18.24
2023-08-27T12:08:15.307Z,18.22
2023-08-27T12:10:45.777Z,17.91
2023-08-27T12:13:15.263Z,17.28
2023-08-27T12:15:44.859Z,18.18
2023-08-27T12:18:14.365Z,18.29
2023-08-27T12:20:43.906Z,18.26
2023-08-27T12:23:14.549Z,18.40
2023-08-27T12:25:51.162Z,18.38
2023-08-27T12:28:22.274Z,18.92
2023-08-27T12:30:55.512Z,18.45
2023-08-27T12:33:41.220Z,18.29
2023-08-27T12:36:10.653Z,17.96
2023-08-27T12:38:39.945Z,18.40
2023-08-27T12:41:09.321Z,18.48
2023-08-27T12:43:39.384Z,18.98
2023-08-27T12:46:08.885Z,19.21
2023-08-27T12:48:38.291Z,19.15
2023-08-27T12:51:07.438Z,19.80
2023-08-27T12:53:36.502Z,20.20
2023-08-27T12:56:07.799Z,20.93
2023-08-27T12:58:37.325Z,21.24
2023-08-27T13:01:06.544Z,21.78
2023-08-27T13:03:35.886Z,22.44
2023-08-27T13:06:05.217Z,23.04
2023-08-27T13:08:34.461Z,23.33
2023-08-27T13:11:04.908Z,23.69
2023-08-27T13:13:33.988Z,24.06
2023-08-27T13:16:03.100Z,24.18
2023-08-27T13:18:32.095Z,24.38
2023-08-27T13:21:01.889Z,24.41
2023-08-27T13:23:31.753Z,24.31
2023-08-27T13:26:01.133Z,24.05
2023-08-27T13:28:30.487Z,24.26
2023-08-27T13:31:01.235Z,24.18
2023-08-27T13:33:30.543Z,23.49
2023-08-27T13:36:00.667Z,23.50
2023-08-27T13:38:30.261Z,23.11
2023-08-27T13:41:00.031Z,23.10
2023-08-27T13:43:29.123Z,22.85
2023-08-27T13:45:58.472Z,22.51
2023-08-27T13:48:27.827Z,22.40
2023-08-27T13:50:57.255Z,22.59
2023-08-27T13:53:26.541Z,22.58
2023-08-27T13:55:55.781Z,22.79
2023-08-27T13:58:25.402Z,22.48
2023-08-27T14:00:54.804Z,22.15
2023-08-27T14:03:25.000Z,21.73
2023-08-27T14:05:54.189Z,21.22
2023-08-27T14:08:27.862Z,20.49
2023-08-27T14:10:57.531Z,21.13
2023-08-27T14:13:27.120Z,21.41
2023-08-27T14:15:56.903Z,21.56
2023-08-27T14:18:26.468Z,21.18
2023-08-27T14:20:56.129Z,20.47
2023-08-27T14:23:25.120Z,20.12
2023-08-27T14:25:54.580Z,20.70
2023-08-27T14:28:24.083Z,20.56
2023-08-27T14:30:53.514Z,20.47
2023-08-27T14:33:22.447Z,19.76
2023-08-27T14:35:51.706Z,19.19
2023-08-27T14:38:20.922Z,19.66
2023-08-27T14:40:50.121Z,19.86
2023-08-27T14:43:19.026Z,19.16
2023-08-27T14:45:48.343Z,18.73
2023-08-27T14:48:17.298Z,18.52
2023-08-27T14:50:46.587Z,18.36
2023-08-27T14:53:15.624Z,17.53
2023-08-27T14:55:44.618Z,18.74
2023-08-27T14:58:13.716Z,18.35
2023-08-27T15:00:44.582Z,18.21
2023-08-27T15:03:15.566Z,17.90
2023-08-27T15:05:44.825Z,18.06
2023-08-27T15:08:14.479Z,18.18
2023-08-27T15:10:43.782Z,18.22
2023-08-27T15:13:12.763Z,17.69
2023-08-27T15:15:42.046Z,17.19
2023-08-27T15:18:11.075Z,16.77
2023-08-27T15:20:39.994Z,16.72
2023-08-27T15:23:09.747Z,15.89
2023-08-27T15:25:38.734Z,15.80
2023-08-27T15:28:07.705Z,16.12
2023-08-27T15:30:37.377Z,16.43
2023-08-27T15:33:06.789Z,16.90
2023-08-27T15:35:36.033Z,16.76
2023-08-27T15:38:05.257Z,17.08
2023-08-27T15:40:36.214Z,17.19
2023-08-27T15:43:36.184Z,17.40
2023-08-27T15:46:05.570Z,17.69
2023-08-27T15:48:34.525Z,18.31
2023-08-27T15:51:04.201Z,17.83
2023-08-27T15:53:33.571Z,17.41
2023-08-27T15:56:02.989Z,17.34
2023-08-27T15:58:32.393Z,17.24
2023-08-27T16:01:02.591Z,18.42
2023-08-27T16:03:31.648Z,18.76
2023-08-27T16:06:00.932Z,19.27
2023-08-27T16:08:30.241Z,18.85
2023-08-27T16:10:59.283Z,19.17
2023-08-27T16:13:28.300Z,19.48
2023-08-27T16:15:57.838Z,19.60
2023-08-27T16:18:27.533Z,19.16
2023-08-27T16:20:56.633Z,19.31
2023-08-27T16:23:25.681Z,19.08
2023-08-27T16:25:56.093Z,19.69
2023-08-27T16:28:25.646Z,19.52
2023-08-27T16:30:55.808Z,19.06
2023-08-27T16:33:24.849Z,19.11
2023-08-27T16:35:54.724Z,19.03
2023-08-27T16:38:24.055Z,18.95
2023-08-27T16:40:53.143Z,18.93
2023-08-27T16:43:22.137Z,18.59
2023-08-27T16:45:55.006Z,18.58
2023-08-27T16:48:24.243Z,17.87
2023-08-27T16:50:54.878Z,16.62
2023-08-27T16:53:24.141Z,16.27
2023-08-27T16:55:53.098Z,17.15
2023-08-27T16:58:22.306Z,16.85
2023-08-27T17:00:51.366Z,17.63
2023-08-27T17:03:20.591Z,16.84
2023-08-27T17:05:59.988Z,16.57
2023-08-27T17:08:30.080Z,16.93
2023-08-27T17:10:59.568Z,17.09
2023-08-27T17:13:28.577Z,17.55
2023-08-27T17:15:57.653Z,16.89
2023-08-27T17:18:26.683Z,16.82
2023-08-27T17:20:55.642Z,16.85
2023-08-27T17:23:24.935Z,17.10
2023-08-27T17:25:53.937Z,16.97
2023-08-27T17:28:23.130Z,17.08
2023-08-27T17:30:57.193Z,16.90
2023-08-27T17:33:26.607Z,17.04
2023-08-27T17:35:55.691Z,16.80
2023-08-27T17:38:24.727Z,17.06
2023-08-27T17:40:54.161Z,16.99
2023-08-27T17:43:24.210Z,16.98
2023-08-27T17:45:53.699Z,16.92
2023-08-27T17:48:23.142Z,16.87
2023-08-27T17:50:52.164Z,16.85
2023-08-27T17:53:21.246Z,17.15
2023-08-27T17:55:53.984Z,16.83
2023-08-27T17:58:23.994Z,16.57
2023-08-27T18:00:55.088Z,16.20
2023-08-27T18:03:24.732Z,16.57
2023-08-27T18:05:53.933Z,16.91
2023-08-27T18:08:23.231Z,16.78
2023-08-27T18:10:52.660Z,16.56
2023-08-27T18:13:21.890Z,16.56
2023-08-27T18:15:52.226Z,16.71
2023-08-27T18:18:21.353Z,16.21
2023-08-27T18:20:51.938Z,16.26
2023-08-27T18:23:21.365Z,15.84
2023-08-27T18:25:50.652Z,15.02
2023-08-27T18:28:19.712Z,14.72
2023-08-27T18:30:48.901Z,15.37
2023-08-27T18:33:18.559Z,14.85
2023-08-27T18:35:47.765Z,14.48
2023-08-27T18:38:16.979Z,14.18
2023-08-27T18:40:46.224Z,13.91
2023-08-27T18:43:15.518Z,14.00
2023-08-27T18:45:45.318Z,14.25
2023-08-27T18:48:14.462Z,14.16
2023-08-27T18:50:44.871Z,13.92
2023-08-27T18:53:13.874Z,13.82
2023-08-27T18:55:46.415Z,13.57
2023-08-27T18:58:15.710Z,13.34
2023-08-27T19:00:44.969Z,13.34
2023-08-27T19:03:14.735Z,13.20
2023-08-27T19:05:47.312Z,13.02
2023-08-27T19:08:16.370Z,13.12
2023-08-27T19:10:45.637Z,13.53
2023-08-27T19:13:15.948Z,13.55
2023-08-27T19:15:45.237Z,13.61
2023-08-27T19:18:14.308Z,13.64
2023-08-27T19:20:43.463Z,13.51
2023-08-27T19:23:12.696Z,13.45
2023-08-27T19:25:41.928Z,13.50
2023-08-27T19:28:11.280Z,13.51
2023-08-27T19:30:41.228Z,13.59
2023-08-27T19:33:10.854Z,13.76
2023-08-27T19:35:40.181Z,14.09
2023-08-27T19:38:09.750Z,13.92
2023-08-27T19:40:38.884Z,14.41
2023-08-27T19:43:08.194Z,14.28
2023-08-27T19:45:37.210Z,14.05
2023-08-27T19:48:06.756Z,14.06
2023-08-27T19:50:37.386Z,13.87
2023-08-27T19:53:06.431Z,13.73
2023-08-27T19:55:35.931Z,13.75
2023-08-27T19:58:05.104Z,13.75
2023-08-27T20:00:34.262Z,13.75
2023-08-27T20:03:03.928Z,13.89
2023-08-27T20:05:38.312Z,13.66
2023-08-27T20:08:07.633Z,13.12
2023-08-27T20:10:39.688Z,12.96
2023-08-27T20:13:08.729Z,13.07
2023-08-27T20:15:38.834Z,12.96
2023-08-27T20:18:08.852Z,13.24
2023-08-27T20:20:40.362Z,13.22
2023-08-27T20:23:09.936Z,13.19
2023-08-27T20:25:39.209Z,13.68
2023-08-27T20:28:08.365Z,14.78
2023-08-27T20:30:38.138Z,14.26
2023-08-27T20:33:07.185Z,13.92
2023-08-27T20:35:38.030Z,14.14
2023-08-27T20:38:07.544Z,14.18
2023-08-27T20:40:38.512Z,13.59
2023-08-27T20:43:08.096Z,13.35
2023-08-27T20:45:37.500Z,13.27
2023-08-27T20:48:08.222Z,13.01
2023-08-27T20:50:37.591Z,13.02
2023-08-27T20:53:07.768Z,13.07
2023-08-27T20:55:37.109Z,13.14
2023-08-27T20:58:06.214Z,13.60
2023-08-27T21:00:35.648Z,13.83
2023-08-27T21:03:05.208Z,14.09
2023-08-27T21:05:34.689Z,14.61
2023-08-27T21:08:03.816Z,14.99
2023-08-27T21:10:33.248Z,15.57
2023-08-27T21:13:03.100Z,15.10
2023-08-27T21:15:32.545Z,14.86
2023-08-27T21:18:03.026Z,14.99
2023-08-27T21:20:32.684Z,15.45
2023-08-27T21:23:02.183Z,15.39
2023-08-27T21:25:31.783Z,15.46
2023-08-27T21:28:01.101Z,16.01
2023-08-27T21:30:30.706Z,15.61
2023-08-27T21:32:59.936Z,15.12
2023-08-27T21:35:29.368Z,15.07
2023-08-27T21:37:58.388Z,15.88
2023-08-27T21:40:27.359Z,16.13
2023-08-27T21:42:56.345Z,15.85
2023-08-27T21:45:25.710Z,15.60
2023-08-27T21:47:54.999Z,15.27
2023-08-27T21:50:25.052Z,15.19
2023-08-27T21:52:54.134Z,15.31
2023-08-27T21:55:23.173Z,15.41
2023-08-27T21:57:53.841Z,15.38
2023-08-27T22:00:23.832Z,15.73
2023-08-27T22:02:56.249Z,15.46
2023-08-27T22:05:25.309Z,15.63
2023-08-27T22:07:54.278Z,15.20
2023-08-27T22:10:25.137Z,15.05
2023-08-27T22:12:54.499Z,15.43
2023-08-27T22:15:23.390Z,15.95
2023-08-27T22:17:54.230Z,15.94
2023-08-27T22:20:24.324Z,15.95
2023-08-27T22:22:53.378Z,16.40
2023-08-27T22:25:22.463Z,16.15
2023-08-27T22:27:51.513Z,16.26
2023-08-27T22:30:21.168Z,16.51
2023-08-27T22:32:51.722Z,16.42
2023-08-27T22:35:21.327Z,16.00
2023-08-27T22:37:50.498Z,15.67
2023-08-27T22:40:19.735Z,15.34
2023-08-27T22:42:48.776Z,15.57
2023-08-27T22:45:17.834Z,15.81
2023-08-27T22:47:47.121Z,15.79
2023-08-27T22:50:16.268Z,15.67
2023-08-27T22:52:45.564Z,15.27
2023-08-27T22:55:14.970Z,16.15
2023-08-27T22:57:44.202Z,15.88
2023-08-27T23:00:13.874Z,15.71
2023-08-27T23:02:43.130Z,15.87
2023-08-27T23:05:12.191Z,15.71
2023-08-27T23:07:41.355Z,16.28
2023-08-27T23:10:11.013Z,16.42
2023-08-27T23:12:40.405Z,16.37
2023-08-27T23:15:09.661Z,16.48
2023-08-27T23:17:39.078Z,15.97
2023-08-27T23:20:10.014Z,15.36
2023-08-27T23:22:39.331Z,16.06
2023-08-27T23:25:08.979Z,15.83
2023-08-27T23:27:38.433Z,15.25
2023-08-27T23:30:09.395Z,14.73
2023-08-27T23:32:38.634Z,14.39
2023-08-27T23:35:09.505Z,14.25
2023-08-27T23:37:38.527Z,14.45
2023-08-27T23:40:10.144Z,14.99
2023-08-27T23:42:39.281Z,14.97
2023-08-27T23:45:09.118Z,15.52
2023-08-27T23:47:38.321Z,15.19
2023-08-27T23:50:08.269Z,15.27
2023-08-27T23:52:38.240Z,14.87
2023-08-27T23:55:08.004Z,14.87
2023-08-27T23:57:37.112Z,14.09
